createdAt,value
2022-12-22T00:00:38.652Z,12.22
2022-12-22T00:03:32.499Z,12.23
2022-12-22T00:06:19.393Z,12.24
2022-12-22T00:09:05.909Z,12.12
2022-12-22T00:11:52.105Z,12.24
2022-12-22T00:14:37.793Z,12.23
2022-12-22T00:17:35.848Z,12.30
2022-12-22T00:20:30.292Z,12.32
2022-12-22T00:23:17.660Z,12.29
2022-12-22T00:26:03.596Z,12.31
2022-12-22T00:28:49.725Z,12.32
2022-12-22T00:31:36.774Z,12.21
2022-12-22T00:34:24.835Z,12.14
2022-12-22T00:40:36.092Z,12.32
2022-12-22T00:43:21.880Z,12.48
2022-12-22T00:46:07.992Z,12.48
2022-12-22T00:48:54.008Z,12.53
2022-12-22T00:51:41.541Z,12.55
2022-12-22T00:54:32.289Z,12.57
2022-12-22T00:57:20.121Z,12.58
2022-12-22T01:00:06.744Z,12.57
2022-12-22T01:02:52.780Z,12.53
2022-12-22T01:05:38.453Z,12.55
2022-12-22T01:08:24.400Z,12.50
2022-12-22T01:11:10.006Z,12.53
2022-12-22T01:13:57.207Z,12.48
2022-12-22T01:16:43.133Z,12.45
2022-12-22T01:19:28.634Z,12.44
2022-12-22T01:22:15.484Z,12.59
2022-12-22T01:25:03.444Z,12.59
2022-12-22T01:27:49.200Z,12.64
2022-12-22T01:30:36.376Z,12.53
2022-12-22T01:33:21.956Z,12.49
2022-12-22T01:36:07.800Z,12.61
2022-12-22T01:38:53.453Z,12.58
2022-12-22T01:41:39.809Z,12.59
2022-12-22T01:44:33.609Z,12.62
2022-12-22T01:47:53.913Z,12.53
2022-12-22T01:50:50.139Z,12.59
2022-12-22T01:53:39.491Z,12.50
2022-12-22T01:56:25.991Z,12.50
2022-12-22T01:59:17.747Z,12.53
2022-12-22T02:02:04.208Z,12.52
2022-12-22T02:05:04.238Z,12.56
2022-12-22T02:08:08.731Z,12.50
2022-12-22T02:11:21.547Z,12.54
2022-12-22T02:14:29.454Z,12.59
2022-12-22T02:17:25.903Z,12.54
2022-12-22T02:20:52.544Z,12.42
2022-12-22T02:23:54.549Z,12.52
2022-12-22T02:26:49.125Z,12.58
2022-12-22T02:29:39.165Z,12.56
2022-12-22T02:32:25.315Z,12.49
2022-12-22T02:35:11.109Z,12.51
2022-12-22T02:38:07.915Z,12.64
2022-12-22T02:41:01.437Z,12.56
2022-12-22T02:44:08.832Z,12.51
2022-12-22T02:47:05.607Z,12.55
2022-12-22T02:49:58.782Z,12.53
2022-12-22T02:52:50.139Z,12.50
2022-12-22T02:55:36.269Z,12.49
2022-12-22T02:58:21.976Z,12.40
2022-12-22T03:01:09.446Z,12.45
2022-12-22T03:03:55.265Z,12.56
2022-12-22T03:06:41.119Z,12.56
2022-12-22T03:09:27.669Z,12.56
2022-12-22T03:12:13.356Z,12.58
2022-12-22T03:14:58.842Z,12.48
2022-12-22T03:17:46.206Z,12.46
2022-12-22T03:20:32.078Z,12.43
2022-12-22T03:23:22.873Z,12.45
2022-12-22T03:25:54.314Z,12.38
2022-12-22T03:28:48.754Z,12.44
2022-12-22T03:31:16.947Z,12.38
2022-12-22T03:33:46.449Z,12.43
2022-12-22T03:36:14.453Z,12.49
2022-12-22T03:38:42.465Z,12.38
2022-12-22T03:41:30.929Z,12.41
2022-12-22T03:44:16.495Z,12.49
2022-12-22T03:46:44.584Z,12.50
2022-12-22T03:49:14.031Z,12.47
2022-12-22T03:51:44.982Z,12.34
2022-12-22T03:54:15.086Z,12.38
2022-12-22T03:56:44.090Z,12.37
2022-12-22T03:59:12.784Z,12.43
2022-12-22T04:01:46.945Z,12.39
2022-12-22T04:04:18.781Z,12.36
2022-12-22T04:06:48.220Z,12.40
2022-12-22T04:09:16.321Z,12.35
2022-12-22T04:12:04.155Z,12.28
2022-12-22T04:14:34.623Z,12.34
2022-12-22T04:17:03.513Z,12.36
2022-12-22T04:19:33.217Z,12.43
2022-12-22T04:22:01.663Z,12.43
2022-12-22T04:24:29.849Z,12.48
2022-12-22T04:26:57.895Z,12.46
2022-12-22T04:29:25.899Z,12.45
2022-12-22T04:31:54.083Z,12.40
2022-12-22T04:34:22.174Z,12.45
2022-12-22T04:36:51.523Z,12.48
2022-12-22T04:39:23.796Z,12.43
2022-12-22T04:41:51.821Z,12.45
2022-12-22T04:44:19.863Z,12.48
2022-12-22T04:46:49.248Z,12.54
2022-12-22T04:49:17.239Z,12.47
2022-12-22T04:51:45.307Z,12.50
2022-12-22T04:54:14.799Z,12.40
2022-12-22T04:56:42.838Z,12.31
2022-12-22T04:59:10.896Z,12.35
2022-12-22T05:01:39.961Z,12.41
2022-12-22T05:04:08.125Z,12.40
2022-12-22T05:06:36.136Z,12.44
2022-12-22T05:09:04.265Z,12.39
2022-12-22T05:11:33.623Z,12.32
2022-12-22T05:14:07.066Z,12.37
2022-12-22T05:16:35.616Z,12.44
2022-12-22T05:19:03.847Z,12.42
2022-12-22T05:21:31.878Z,12.45
2022-12-22T05:24:00.102Z,12.33
2022-12-22T05:26:28.196Z,12.41
2022-12-22T05:28:57.600Z,12.44
2022-12-22T05:31:27.328Z,12.38
2022-12-22T05:33:55.440Z,12.43
2022-12-22T05:36:23.561Z,12.42
2022-12-22T05:38:51.566Z,12.44
2022-12-22T05:41:19.735Z,12.46
2022-12-22T05:43:47.849Z,12.52
2022-12-22T05:46:17.252Z,12.51
2022-12-22T05:48:45.334Z,12.50
2022-12-22T05:51:13.474Z,12.52
2022-12-22T05:53:42.211Z,12.50
2022-12-22T05:56:13.306Z,12.48
2022-12-22T05:58:41.402Z,12.49
2022-12-22T06:01:12.303Z,12.60
2022-12-22T06:03:41.762Z,12.47
2022-12-22T06:06:09.840Z,12.50
2022-12-22T06:08:37.898Z,12.41
2022-12-22T06:11:06.329Z,12.43
2022-12-22T06:13:34.562Z,12.50
2022-12-22T06:16:02.697Z,12.46
2022-12-22T06:18:32.410Z,12.53
2022-12-22T06:21:01.787Z,12.56
2022-12-22T06:23:29.907Z,12.56
2022-12-22T06:25:59.390Z,12.49
2022-12-22T06:28:28.539Z,12.57
2022-12-22T06:30:57.041Z,12.59
2022-12-22T06:33:25.107Z,12.63
2022-12-22T06:35:58.719Z,12.65
2022-12-22T06:38:29.355Z,12.67
2022-12-22T06:40:57.490Z,12.65
2022-12-22T06:43:24.631Z,12.71
2022-12-22T06:45:53.376Z,12.70
2022-12-22T06:48:21.664Z,12.74
2022-12-22T06:50:49.722Z,12.72
2022-12-22T06:53:17.989Z,12.62
2022-12-22T06:55:48.270Z,12.75
2022-12-22T06:58:16.367Z,12.65
2022-12-22T07:00:48.440Z,12.65
2022-12-22T07:03:16.706Z,12.69
2022-12-22T07:05:45.196Z,12.75
2022-12-22T07:08:14.271Z,12.65
2022-12-22T07:11:00.702Z,12.58
2022-12-22T07:13:33.911Z,12.68
2022-12-22T07:16:02.782Z,12.74
2022-12-22T07:18:33.143Z,12.80
2022-12-22T07:21:02.881Z,12.84
2022-12-22T07:23:31.757Z,12.70
2022-12-22T07:26:01.179Z,12.72
2022-12-22T07:28:34.598Z,12.65
2022-12-22T07:31:27.795Z,12.64
2022-12-22T07:33:55.929Z,12.69
2022-12-22T07:36:24.191Z,12.72
2022-12-22T07:38:53.188Z,12.76
2022-12-22T07:41:39.424Z,12.65
2022-12-22T07:44:12.476Z,12.64
2022-12-22T07:46:41.370Z,12.63
2022-12-22T07:49:29.986Z,12.67
2022-12-22T07:51:58.991Z,12.59
2022-12-22T07:54:28.988Z,12.57
2022-12-22T07:56:58.302Z,12.49
2022-12-22T07:59:27.853Z,12.61
2022-12-22T08:01:56.001Z,12.58
2022-12-22T08:04:24.411Z,12.76
2022-12-22T08:06:52.534Z,12.83
2022-12-22T08:09:22.899Z,12.76
2022-12-22T08:11:51.105Z,12.83
2022-12-22T08:14:19.110Z,12.84
2022-12-22T08:16:48.641Z,12.90
2022-12-22T08:19:16.762Z,12.77
2022-12-22T08:21:52.148Z,12.77
2022-12-22T08:24:21.256Z,12.83
2022-12-22T08:26:54.879Z,12.85
2022-12-22T08:29:29.138Z,12.67
2022-12-22T08:31:59.004Z,12.80
2022-12-22T08:34:27.101Z,12.88
2022-12-22T08:36:58.857Z,12.84
2022-12-22T08:39:31.706Z,12.83
2022-12-22T08:42:00.929Z,12.75
2022-12-22T08:44:31.061Z,12.85
2022-12-22T08:47:01.508Z,12.85
2022-12-22T08:49:29.712Z,12.81
2022-12-22T08:51:58.229Z,12.88
2022-12-22T08:54:26.341Z,12.85
2022-12-22T08:56:54.438Z,12.99
2022-12-22T08:59:22.556Z,13.07
2022-12-22T09:01:51.260Z,13.15
2022-12-22T09:04:22.912Z,13.19
2022-12-22T09:06:54.007Z,13.17
2022-12-22T09:09:22.560Z,13.18
2022-12-22T09:11:51.602Z,13.17
2022-12-22T09:14:45.087Z,13.08
2022-12-22T09:17:37.078Z,12.94
2022-12-22T09:20:31.772Z,12.82
2022-12-22T09:23:01.291Z,12.80
2022-12-22T09:25:30.117Z,12.76
2022-12-22T09:27:59.600Z,12.80
2022-12-22T09:30:51.621Z,12.77
2022-12-22T09:33:19.958Z,12.86
2022-12-22T09:35:49.348Z,12.83
2022-12-22T09:38:17.419Z,12.81
2022-12-22T09:40:45.622Z,12.92
2022-12-22T09:43:18.009Z,12.86
2022-12-22T09:45:47.028Z,12.87
2022-12-22T09:48:15.724Z,12.70
2022-12-22T09:50:43.974Z,12.70
2022-12-22T09:53:21.718Z,12.79
2022-12-22T09:55:52.104Z,12.72
2022-12-22T09:58:27.012Z,12.63
2022-12-22T10:01:08.286Z,12.73
2022-12-22T10:03:46.460Z,12.59
2022-12-22T10:06:22.247Z,12.60
2022-12-22T10:08:54.344Z,12.51
2022-12-22T10:11:22.596Z,12.52
2022-12-22T10:13:50.632Z,12.50
2022-12-22T10:16:23.009Z,12.54
2022-12-22T10:19:07.278Z,12.50
2022-12-22T10:21:44.642Z,12.44
2022-12-22T10:24:28.062Z,12.52
2022-12-22T10:27:00.162Z,12.57
2022-12-22T10:29:29.688Z,12.48
2022-12-22T10:32:02.174Z,12.57
2022-12-22T10:34:31.281Z,12.60
2022-12-22T10:37:04.718Z,12.66
2022-12-22T10:39:38.387Z,12.65
2022-12-22T10:42:20.650Z,12.70
2022-12-22T10:44:50.694Z,12.69
2022-12-22T10:47:24.168Z,12.72
2022-12-22T10:52:30.995Z,12.76
2022-12-22T10:58:07.638Z,12.71
2022-12-22T11:00:35.816Z,12.76
2022-12-22T11:03:07.096Z,12.63
2022-12-22T11:05:35.577Z,12.67
2022-12-22T11:08:17.832Z,12.74
2022-12-22T11:10:53.843Z,12.60
2022-12-22T11:13:55.109Z,12.54
2022-12-22T11:16:34.095Z,12.40
2022-12-22T11:19:31.096Z,12.53
2022-12-22T11:22:08.750Z,12.61
2022-12-22T11:24:47.618Z,12.67
2022-12-22T11:27:42.327Z,12.70
2022-12-22T11:30:20.031Z,12.73
2022-12-22T11:33:15.904Z,12.69
2022-12-22T11:35:57.576Z,12.67
2022-12-22T11:38:45.748Z,12.72
2022-12-22T11:41:32.094Z,12.72
2022-12-22T11:44:28.454Z,12.87
2022-12-22T11:47:06.494Z,12.93
2022-12-22T11:49:53.441Z,13.05
2022-12-22T11:52:49.012Z,12.89
2022-12-22T11:55:30.244Z,12.97
2022-12-22T11:58:14.530Z,12.94
2022-12-22T12:01:14.061Z,13.09
2022-12-22T12:04:21.828Z,13.13
2022-12-22T12:07:26.032Z,13.14
2022-12-22T12:10:15.789Z,13.08
2022-12-22T12:12:53.945Z,13.09
2022-12-22T12:15:33.360Z,13.15
2022-12-22T12:18:37.607Z,13.19
2022-12-22T12:21:27.515Z,13.20
2022-12-22T12:24:30.316Z,13.23
2022-12-22T12:27:32.184Z,13.09
2022-12-22T12:30:38.917Z,13.12
2022-12-22T12:33:16.760Z,13.18
2022-12-22T12:35:58.071Z,13.21
2022-12-22T12:39:07.287Z,13.30
2022-12-22T12:41:38.814Z,13.31
2022-12-22T12:44:10.432Z,13.21
2022-12-22T12:47:09.414Z,13.19
2022-12-22T12:50:06.767Z,13.25
2022-12-22T12:53:14.870Z,13.21
2022-12-22T12:56:07.019Z,13.34
2022-12-22T12:58:53.663Z,13.49
2022-12-22T13:02:00.696Z,13.38
2022-12-22T13:05:29.811Z,13.34
2022-12-22T13:08:16.848Z,13.51
2022-12-22T13:12:01.707Z,13.59
2022-12-22T13:14:56.054Z,13.55
2022-12-22T13:17:50.390Z,13.63
2022-12-22T13:20:26.343Z,13.57
2022-12-22T13:22:56.133Z,13.65
2022-12-22T13:25:28.096Z,13.72
2022-12-22T13:27:59.305Z,13.64
2022-12-22T13:30:31.444Z,13.61
2022-12-22T13:33:02.300Z,13.61
2022-12-22T13:35:43.055Z,13.67
2022-12-22T13:38:30.326Z,13.67
2022-12-22T13:40:59.660Z,13.63
2022-12-22T13:43:33.139Z,13.59
2022-12-22T13:46:04.260Z,13.55
2022-12-22T13:48:45.097Z,13.53
2022-12-22T13:51:21.527Z,13.59
2022-12-22T13:54:08.232Z,13.50
2022-12-22T13:56:41.878Z,13.53
2022-12-22T13:59:27.102Z,13.62
2022-12-22T14:02:00.486Z,13.68
2022-12-22T14:04:29.384Z,13.59
2022-12-22T14:06:57.726Z,13.63
2022-12-22T14:09:27.059Z,13.65
2022-12-22T14:11:58.994Z,13.56
2022-12-22T14:14:32.069Z,13.64
2022-12-22T14:17:02.355Z,13.57
2022-12-22T14:19:36.045Z,13.70
2022-12-22T14:22:11.178Z,13.69
2022-12-22T14:24:45.795Z,13.57
2022-12-22T14:27:24.061Z,13.69
2022-12-22T14:29:53.726Z,13.69
2022-12-22T14:32:39.255Z,13.71
2022-12-22T14:35:27.066Z,13.68
2022-12-22T14:37:57.304Z,13.52
2022-12-22T14:40:33.858Z,13.55
2022-12-22T14:43:06.573Z,13.53
2022-12-22T14:45:36.081Z,13.51
2022-12-22T14:48:11.233Z,13.44
2022-12-22T14:50:40.424Z,13.49
2022-12-22T14:53:08.628Z,13.55
2022-12-22T14:55:40.721Z,13.42
2022-12-22T14:58:16.346Z,13.39
2022-12-22T15:00:48.360Z,13.42
2022-12-22T15:03:34.065Z,13.42
2022-12-22T15:06:24.697Z,13.39
2022-12-22T15:08:54.133Z,13.38
2022-12-22T15:11:25.118Z,13.34
2022-12-22T15:13:53.406Z,13.30
2022-12-22T15:16:24.894Z,13.32
2022-12-22T15:18:53.935Z,13.24
2022-12-22T15:21:22.916Z,13.21
2022-12-22T15:23:51.089Z,13.32
2022-12-22T15:26:19.103Z,13.31
2022-12-22T15:28:47.123Z,13.35
2022-12-22T15:31:17.691Z,13.41
2022-12-22T15:33:47.385Z,13.44
2022-12-22T15:36:15.759Z,13.45
2022-12-22T15:38:43.831Z,13.42
2022-12-22T15:41:11.910Z,13.43
2022-12-22T15:46:28.011Z,13.44
2022-12-22T15:48:57.468Z,13.47
2022-12-22T15:51:28.972Z,13.48
2022-12-22T15:53:58.249Z,13.40
2022-12-22T15:56:29.411Z,13.32
2022-12-22T15:58:58.141Z,13.31
2022-12-22T16:01:30.836Z,13.34
2022-12-22T16:04:00.285Z,13.29
2022-12-22T16:06:28.372Z,13.18
2022-12-22T16:08:56.382Z,13.20
2022-12-22T16:11:24.499Z,13.25
2022-12-22T16:13:53.492Z,13.26
2022-12-22T16:16:21.645Z,13.21
2022-12-22T16:18:54.578Z,13.27
2022-12-22T16:21:32.377Z,13.19
2022-12-22T16:24:03.857Z,13.14
2022-12-22T16:26:32.695Z,13.12
2022-12-22T16:29:00.823Z,13.14
2022-12-22T16:31:29.256Z,13.11
2022-12-22T16:33:59.958Z,13.08
2022-12-22T16:36:29.320Z,13.08
2022-12-22T16:38:57.818Z,13.06
2022-12-22T16:41:26.850Z,12.92
2022-12-22T16:44:03.809Z,12.97
2022-12-22T16:46:38.605Z,12.98
2022-12-22T16:49:09.991Z,12.99
2022-12-22T16:51:49.267Z,13.09
2022-12-22T16:54:17.475Z,13.10
2022-12-22T16:56:46.916Z,13.02
2022-12-22T16:59:15.317Z,12.93
2022-12-22T17:01:48.518Z,12.97
2022-12-22T17:04:22.466Z,12.87
2022-12-22T17:06:53.179Z,12.97
2022-12-22T17:09:29.421Z,12.98
2022-12-22T17:11:59.362Z,12.93
2022-12-22T17:14:35.365Z,12.93
2022-12-22T17:17:07.057Z,12.88
2022-12-22T17:19:35.054Z,12.95
2022-12-22T17:22:06.021Z,12.90
2022-12-22T17:24:34.414Z,12.81
2022-12-22T17:27:06.837Z,12.81
2022-12-22T17:29:36.052Z,12.77
2022-12-22T17:32:04.159Z,12.78
2022-12-22T17:34:33.398Z,12.69
2022-12-22T17:37:01.851Z,12.70
2022-12-22T17:39:32.656Z,12.79
2022-12-22T17:42:00.696Z,12.82
2022-12-22T17:44:28.785Z,12.77
2022-12-22T17:46:57.222Z,12.77
2022-12-22T17:49:29.359Z,12.75
2022-12-22T17:51:58.699Z,12.76
2022-12-22T17:54:28.430Z,12.76
2022-12-22T17:57:02.477Z,12.64
2022-12-22T17:59:30.777Z,12.61
2022-12-22T18:01:58.929Z,12.61
2022-12-22T18:04:26.983Z,12.61
2022-12-22T18:06:55.909Z,12.74
2022-12-22T18:09:27.093Z,12.71
2022-12-22T18:11:56.689Z,12.75
2022-12-22T18:14:24.765Z,12.72
2022-12-22T18:16:52.979Z,12.70
2022-12-22T18:19:21.087Z,12.58
2022-12-22T18:21:49.684Z,12.56
2022-12-22T18:24:19.873Z,12.59
2022-12-22T18:26:47.929Z,12.61
2022-12-22T18:29:17.821Z,12.66
2022-12-22T18:31:46.477Z,12.64
2022-12-22T18:34:14.655Z,12.66
2022-12-22T18:36:45.412Z,12.68
2022-12-22T18:39:20.153Z,12.73
2022-12-22T18:41:48.433Z,12.70
2022-12-22T18:44:18.641Z,12.70
2022-12-22T18:46:47.605Z,12.70
2022-12-22T18:49:15.896Z,12.82
2022-12-22T18:51:44.928Z,12.85
2022-12-22T18:54:28.827Z,12.83
2022-12-22T18:56:56.872Z,12.84
2022-12-22T18:59:28.905Z,12.83
2022-12-22T19:02:02.940Z,12.84
2022-12-22T19:04:31.116Z,12.74
2022-12-22T19:06:59.471Z,12.80
2022-12-22T19:09:27.788Z,12.89
2022-12-22T19:11:55.879Z,12.82
2022-12-22T19:14:24.063Z,12.83
2022-12-22T19:16:54.721Z,12.77
2022-12-22T19:19:22.955Z,12.84
2022-12-22T19:21:51.028Z,12.81
2022-12-22T19:24:19.055Z,12.84
2022-12-22T19:26:47.169Z,12.84
2022-12-22T19:29:15.694Z,12.88
2022-12-22T19:31:45.159Z,12.85
2022-12-22T19:34:20.754Z,12.97
2022-12-22T19:36:49.292Z,12.90
2022-12-22T19:39:17.800Z,12.86
2022-12-22T19:41:48.863Z,12.85
2022-12-22T19:44:24.344Z,12.87
2022-12-22T19:46:53.494Z,12.83
2022-12-22T19:49:25.257Z,12.82
2022-12-22T19:51:53.280Z,12.83
2022-12-22T19:54:21.420Z,12.85
2022-12-22T19:56:54.213Z,12.86
2022-12-22T19:59:32.551Z,12.86
2022-12-22T20:02:19.285Z,12.87
2022-12-22T20:04:49.087Z,12.92
2022-12-22T20:07:18.478Z,12.96
2022-12-22T20:09:47.839Z,12.92
2022-12-22T20:12:25.166Z,12.92
2022-12-22T20:14:53.695Z,12.86
2022-12-22T20:17:22.149Z,12.88
2022-12-22T20:19:51.607Z,12.92
2022-12-22T20:22:23.830Z,12.92
2022-12-22T20:24:54.433Z,12.94
2022-12-22T20:27:30.864Z,12.93
2022-12-22T20:29:58.878Z,12.89
2022-12-22T20:32:28.562Z,12.94
2022-12-22T20:34:58.221Z,12.89
2022-12-22T20:37:26.287Z,12.97
2022-12-22T20:39:54.339Z,13.00
2022-12-22T20:42:25.667Z,13.02
2022-12-22T20:45:02.258Z,12.94
2022-12-22T20:47:31.728Z,13.03
2022-12-22T20:50:01.198Z,13.00
2022-12-22T20:52:29.482Z,12.99
2022-12-22T20:54:57.509Z,12.99
2022-12-22T20:57:27.167Z,12.89
2022-12-22T20:59:56.632Z,12.88
2022-12-22T21:02:28.525Z,12.90
2022-12-22T21:04:57.117Z,12.93
2022-12-22T21:07:26.735Z,12.88
2022-12-22T21:09:54.813Z,12.88
2022-12-22T21:12:22.857Z,12.91
2022-12-22T21:14:51.824Z,12.87
2022-12-22T21:17:20.674Z,12.73
2022-12-22T21:19:48.859Z,12.72
2022-12-22T21:22:16.883Z,12.72
2022-12-22T21:24:46.323Z,12.76
2022-12-22T21:27:20.926Z,12.76
2022-12-22T21:29:49.166Z,12.75
2022-12-22T21:32:17.599Z,12.75
2022-12-22T21:34:45.708Z,12.84
2022-12-22T21:37:18.673Z,12.83
2022-12-22T21:39:48.194Z,12.87
2022-12-22T21:42:17.025Z,12.93
2022-12-22T21:44:45.930Z,12.93
2022-12-22T21:47:18.199Z,12.90
2022-12-22T21:49:46.232Z,12.90
2022-12-22T21:52:14.478Z,12.83
2022-12-22T21:54:42.807Z,12.81
2022-12-22T21:57:16.046Z,12.86
2022-12-22T21:59:44.132Z,12.86
2022-12-22T22:02:17.220Z,12.82
2022-12-22T22:04:53.764Z,12.78
2022-12-22T22:07:22.437Z,12.79
2022-12-22T22:09:50.488Z,12.71
2022-12-22T22:12:37.153Z,12.67
2022-12-22T22:15:07.915Z,12.67
2022-12-22T22:17:35.987Z,12.71
2022-12-22T22:20:04.871Z,12.70
2022-12-22T22:22:32.944Z,12.63
2022-12-22T22:25:00.973Z,12.73
2022-12-22T22:27:30.439Z,12.67
2022-12-22T22:29:58.612Z,12.64
2022-12-22T22:32:26.831Z,12.65
2022-12-22T22:34:54.869Z,12.59
2022-12-22T22:37:23.068Z,12.66
2022-12-22T22:39:51.341Z,12.64
2022-12-22T22:42:19.424Z,12.66
2022-12-22T22:44:48.916Z,12.60
2022-12-22T22:47:16.973Z,12.60
2022-12-22T22:49:45.013Z,12.51
2022-12-22T22:52:13.136Z,12.53
2022-12-22T22:54:41.191Z,12.56
2022-12-22T22:57:09.250Z,12.59
2022-12-22T22:59:37.903Z,12.56
2022-12-22T23:02:31.336Z,12.51
2022-12-22T23:04:59.473Z,12.47
2022-12-22T23:07:27.519Z,12.52
2022-12-22T23:09:55.614Z,12.55
2022-12-22T23:12:23.763Z,12.46
2022-12-22T23:14:51.784Z,12.45
2022-12-22T23:17:21.226Z,12.50
2022-12-22T23:19:49.263Z,12.41
2022-12-22T23:22:17.566Z,12.43
2022-12-22T23:24:45.598Z,12.31
2022-12-22T23:27:13.697Z,12.29
2022-12-22T23:29:41.770Z,12.36
2022-12-22T23:32:34.308Z,12.34
2022-12-22T23:35:03.723Z,12.36
2022-12-22T23:37:31.740Z,12.36
2022-12-22T23:40:25.126Z,12.36
2022-12-22T23:42:51.681Z,12.37
2022-12-22T23:45:22.886Z,12.40
2022-12-22T23:47:50.913Z,12.35
2022-12-22T23:50:20.525Z,12.43
2022-12-22T23:52:49.487Z,12.42
2022-12-22T23:55:18.070Z,12.38
2022-12-22T23:57:46.399Z,12.36
